Terminal Aerodrome Forecast
Issued by NWS Sioux Falls, SD

Home | Current Version | Previous Version | Graphics & Text | Print | Product List | Glossary Off
Versions: 1 2 3 4 5 6 7 8 9 10 11 12 13 14

000
FTUS43 KFSD 281120
TAFFSD
TAF
KFSD 281120Z 2812/2912 16005KT P6SM SKC
      TEMPO 2812/2814 5SM BR
     FM281400 18009KT P6SM SKC
     FM281800 18013G20KT P6SM SKC
     FM290100 17008KT P6SM SKC=

USA.gov is the U.S. government's official web portal to all federal, state and local government web resources and services.